sensor_id;sensor_type;location;lat;lon;timestamp;P1;durP1;ratioP1;P2;durP2;ratioP2
36355;SDS011;22384;54.302;18.596;2023-08-08T00:02:16;7.75;;;2.00;;
36355;SDS011;22384;54.302;18.596;2023-08-08T00:04:42;10.35;;;2.47;;
36355;SDS011;22384;54.302;18.596;2023-08-08T00:07:08;7.03;;;2.10;;
36355;SDS011;22384;54.302;18.596;2023-08-08T00:09:35;10.48;;;2.15;;
36355;SDS011;22384;54.302;18.596;2023-08-08T00:12:02;10.55;;;1.85;;
36355;SDS011;22384;54.302;18.596;2023-08-08T00:14:28;13.25;;;2.33;;
36355;SDS011;22384;54.302;18.596;2023-08-08T00:16:54;13.40;;;2.00;;
36355;SDS011;22384;54.302;18.596;2023-08-08T00:19:20;12.45;;;2.05;;
36355;SDS011;22384;54.302;18.596;2023-08-08T00:21:46;13.15;;;3.05;;
36355;SDS011;22384;54.302;18.596;2023-08-08T00:24:12;7.88;;;2.00;;
36355;SDS011;22384;54.302;18.596;2023-08-08T00:26:38;11.50;;;2.33;;
36355;SDS011;22384;54.302;18.596;2023-08-08T00:29:04;13.23;;;2.17;;
36355;SDS011;22384;54.302;18.596;2023-08-08T00:31:31;13.77;;;2.55;;
36355;SDS011;22384;54.302;18.596;2023-08-08T00:33:57;10.77;;;3.05;;
36355;SDS011;22384;54.302;18.596;2023-08-08T00:36:23;11.82;;;2.28;;
36355;SDS011;22384;54.302;18.596;2023-08-08T00:38:49;18.75;;;2.72;;
36355;SDS011;22384;54.302;18.596;2023-08-08T00:41:15;12.07;;;2.30;;
36355;SDS011;22384;54.302;18.596;2023-08-08T00:43:41;12.27;;;2.33;;
36355;SDS011;22384;54.302;18.596;2023-08-08T00:46:08;9.02;;;2.63;;
36355;SDS011;22384;54.302;18.596;2023-08-08T00:48:34;11.88;;;2.35;;
36355;SDS011;22384;54.302;18.596;2023-08-08T00:51:00;9.48;;;2.72;;
36355;SDS011;22384;54.302;18.596;2023-08-08T00:53:26;10.02;;;2.58;;
36355;SDS011;22384;54.302;18.596;2023-08-08T00:55:56;6.32;;;3.63;;
36355;SDS011;22384;54.302;18.596;2023-08-08T00:58:21;8.80;;;1.98;;
36355;SDS011;22384;54.302;18.596;2023-08-08T01:00:47;8.23;;;2.10;;
36355;SDS011;22384;54.302;18.596;2023-08-08T01:03:13;11.00;;;1.90;;
36355;SDS011;22384;54.302;18.596;2023-08-08T01:05:47;20.67;;;3.00;;
36355;SDS011;22384;54.302;18.596;2023-08-08T01:08:15;13.45;;;2.50;;
36355;SDS011;22384;54.302;18.596;2023-08-08T01:10:42;10.07;;;2.40;;
36355;SDS011;22384;54.302;18.596;2023-08-08T01:13:18;9.32;;;2.28;;
36355;SDS011;22384;54.302;18.596;2023-08-08T01:15:46;9.35;;;2.13;;
36355;SDS011;22384;54.302;18.596;2023-08-08T01:18:12;12.93;;;2.80;;
36355;SDS011;22384;54.302;18.596;2023-08-08T01:20:39;17.90;;;2.45;;
36355;SDS011;22384;54.302;18.596;2023-08-08T01:23:14;12.07;;;3.10;;
36355;SDS011;22384;54.302;18.596;2023-08-08T01:25:42;12.07;;;3.67;;
36355;SDS011;22384;54.302;18.596;2023-08-08T01:28:09;10.95;;;2.28;;
36355;SDS011;22384;54.302;18.596;2023-08-08T01:30:35;11.02;;;3.25;;
36355;SDS011;22384;54.302;18.596;2023-08-08T01:33:01;10.77;;;2.30;;
36355;SDS011;22384;54.302;18.596;2023-08-08T01:35:28;12.80;;;2.30;;
36355;SDS011;22384;54.302;18.596;2023-08-08T01:40:45;9.30;;;2.58;;
36355;SDS011;22384;54.302;18.596;2023-08-08T01:43:11;12.32;;;2.88;;
36355;SDS011;22384;54.302;18.596;2023-08-08T01:45:38;12.75;;;2.08;;
36355;SDS011;22384;54.302;18.596;2023-08-08T01:48:07;8.15;;;2.15;;
36355;SDS011;22384;54.302;18.596;2023-08-08T01:50:34;8.60;;;2.30;;
36355;SDS011;22384;54.302;18.596;2023-08-08T01:53:00;17.98;;;3.22;;
36355;SDS011;22384;54.302;18.596;2023-08-08T01:55:26;15.98;;;3.65;;
36355;SDS011;22384;54.302;18.596;2023-08-08T01:57:52;13.48;;;2.58;;
36355;SDS011;22384;54.302;18.596;2023-08-08T02:00:18;9.63;;;2.45;;
36355;SDS011;22384;54.302;18.596;2023-08-08T02:02:44;15.02;;;2.30;;
36355;SDS011;22384;54.302;18.596;2023-08-08T02:05:10;12.20;;;2.35;;
36355;SDS011;22384;54.302;18.596;2023-08-08T02:07:36;12.60;;;2.78;;
36355;SDS011;22384;54.302;18.596;2023-08-08T02:10:02;9.00;;;2.15;;
36355;SDS011;22384;54.302;18.596;2023-08-08T02:12:28;10.10;;;2.03;;
36355;SDS011;22384;54.302;18.596;2023-08-08T02:14:55;17.02;;;3.17;;
36355;SDS011;22384;54.302;18.596;2023-08-08T02:17:21;13.85;;;2.40;;
36355;SDS011;22384;54.302;18.596;2023-08-08T02:19:47;11.70;;;2.55;;
36355;SDS011;22384;54.302;18.596;2023-08-08T02:22:13;14.98;;;2.20;;
36355;SDS011;22384;54.302;18.596;2023-08-08T02:24:39;8.98;;;2.97;;
36355;SDS011;22384;54.302;18.596;2023-08-08T02:27:05;13.18;;;2.42;;
36355;SDS011;22384;54.302;18.596;2023-08-08T02:29:31;12.55;;;3.08;;
36355;SDS011;22384;54.302;18.596;2023-08-08T02:31:57;11.35;;;2.45;;
36355;SDS011;22384;54.302;18.596;2023-08-08T02:34:23;10.52;;;2.47;;
36355;SDS011;22384;54.302;18.596;2023-08-08T02:36:49;13.93;;;2.53;;
36355;SDS011;22384;54.302;18.596;2023-08-08T02:39:15;7.32;;;2.20;;
36355;SDS011;22384;54.302;18.596;2023-08-08T02:41:41;8.45;;;2.60;;
36355;SDS011;22384;54.302;18.596;2023-08-08T02:44:08;9.05;;;2.25;;
36355;SDS011;22384;54.302;18.596;2023-08-08T02:46:34;10.93;;;2.63;;
36355;SDS011;22384;54.302;18.596;2023-08-08T02:49:01;11.93;;;2.63;;
36355;SDS011;22384;54.302;18.596;2023-08-08T02:51:27;8.27;;;2.17;;
36355;SDS011;22384;54.302;18.596;2023-08-08T02:53:53;11.00;;;2.60;;
36355;SDS011;22384;54.302;18.596;2023-08-08T02:56:19;9.70;;;3.13;;
36355;SDS011;22384;54.302;18.596;2023-08-08T02:58:45;9.95;;;2.47;;
36355;SDS011;22384;54.302;18.596;2023-08-08T03:01:11;13.30;;;2.58;;
36355;SDS011;22384;54.302;18.596;2023-08-08T03:03:40;13.38;;;2.47;;
36355;SDS011;22384;54.302;18.596;2023-08-08T03:06:06;7.03;;;2.33;;
36355;SDS011;22384;54.302;18.596;2023-08-08T03:08:33;11.07;;;3.10;;
36355;SDS011;22384;54.302;18.596;2023-08-08T03:10:59;7.05;;;2.03;;
36355;SDS011;22384;54.302;18.596;2023-08-08T03:13:25;10.75;;;2.22;;
36355;SDS011;22384;54.302;18.596;2023-08-08T03:15:51;7.35;;;2.33;;
36355;SDS011;22384;54.302;18.596;2023-08-08T03:18:17;8.38;;;2.65;;
36355;SDS011;22384;54.302;18.596;2023-08-08T03:20:43;6.00;;;2.08;;
36355;SDS011;22384;54.302;18.596;2023-08-08T03:23:09;17.52;;;3.15;;
36355;SDS011;22384;54.302;18.596;2023-08-08T03:25:35;15.65;;;2.72;;
36355;SDS011;22384;54.302;18.596;2023-08-08T03:28:01;10.90;;;2.42;;
36355;SDS011;22384;54.302;18.596;2023-08-08T03:30:27;16.77;;;2.50;;
36355;SDS011;22384;54.302;18.596;2023-08-08T03:32:53;8.10;;;1.90;;
36355;SDS011;22384;54.302;18.596;2023-08-08T03:35:19;11.15;;;2.35;;
36355;SDS011;22384;54.302;18.596;2023-08-08T03:37:45;6.35;;;2.15;;
36355;SDS011;22384;54.302;18.596;2023-08-08T03:40:11;14.95;;;2.78;;
36355;SDS011;22384;54.302;18.596;2023-08-08T03:42:39;9.73;;;2.10;;
36355;SDS011;22384;54.302;18.596;2023-08-08T03:45:05;5.90;;;2.45;;
36355;SDS011;22384;54.302;18.596;2023-08-08T03:47:31;7.80;;;2.78;;
36355;SDS011;22384;54.302;18.596;2023-08-08T03:49:57;7.78;;;2.15;;
36355;SDS011;22384;54.302;18.596;2023-08-08T03:52:24;12.15;;;2.38;;
36355;SDS011;22384;54.302;18.596;2023-08-08T03:54:51;12.32;;;2.58;;
36355;SDS011;22384;54.302;18.596;2023-08-08T03:57:17;8.63;;;1.92;;
36355;SDS011;22384;54.302;18.596;2023-08-08T03:59:43;6.35;;;1.77;;
36355;SDS011;22384;54.302;18.596;2023-08-08T04:02:09;15.05;;;2.70;;
36355;SDS011;22384;54.302;18.596;2023-08-08T04:04:35;12.73;;;2.08;;
36355;SDS011;22384;54.302;18.596;2023-08-08T04:07:01;7.03;;;1.80;;
36355;SDS011;22384;54.302;18.596;2023-08-08T04:09:27;8.00;;;1.95;;
36355;SDS011;22384;54.302;18.596;2023-08-08T04:11:53;8.60;;;2.00;;
36355;SDS011;22384;54.302;18.596;2023-08-08T04:14:19;8.77;;;2.08;;
36355;SDS011;22384;54.302;18.596;2023-08-08T04:16:45;10.18;;;2.60;;
36355;SDS011;22384;54.302;18.596;2023-08-08T04:19:11;8.05;;;1.90;;
36355;SDS011;22384;54.302;18.596;2023-08-08T04:21:37;8.73;;;2.22;;
36355;SDS011;22384;54.302;18.596;2023-08-08T04:24:03;8.88;;;2.20;;
36355;SDS011;22384;54.302;18.596;2023-08-08T04:26:30;5.30;;;2.10;;
36355;SDS011;22384;54.302;18.596;2023-08-08T04:28:56;9.02;;;2.42;;
36355;SDS011;22384;54.302;18.596;2023-08-08T04:31:22;6.53;;;2.20;;
36355;SDS011;22384;54.302;18.596;2023-08-08T04:33:50;8.30;;;2.17;;
36355;SDS011;22384;54.302;18.596;2023-08-08T04:36:16;9.32;;;2.15;;
36355;SDS011;22384;54.302;18.596;2023-08-08T04:38:42;3.78;;;1.70;;
36355;SDS011;22384;54.302;18.596;2023-08-08T04:41:08;7.82;;;2.55;;
36355;SDS011;22384;54.302;18.596;2023-08-08T04:43:34;7.10;;;1.80;;
36355;SDS011;22384;54.302;18.596;2023-08-08T04:46:00;9.57;;;2.78;;
36355;SDS011;22384;54.302;18.596;2023-08-08T04:48:26;8.05;;;2.35;;
36355;SDS011;22384;54.302;18.596;2023-08-08T04:50:52;6.13;;;2.13;;
36355;SDS011;22384;54.302;18.596;2023-08-08T04:53:18;7.78;;;1.70;;
36355;SDS011;22384;54.302;18.596;2023-08-08T04:55:44;12.30;;;2.08;;
36355;SDS011;22384;54.302;18.596;2023-08-08T04:58:10;8.88;;;2.05;;
36355;SDS011;22384;54.302;18.596;2023-08-08T05:00:36;7.63;;;1.98;;
36355;SDS011;22384;54.302;18.596;2023-08-08T05:03:02;8.52;;;1.90;;
36355;SDS011;22384;54.302;18.596;2023-08-08T05:05:28;14.85;;;2.17;;
36355;SDS011;22384;54.302;18.596;2023-08-08T05:07:54;8.65;;;2.17;;
36355;SDS011;22384;54.302;18.596;2023-08-08T05:10:20;9.55;;;1.70;;
36355;SDS011;22384;54.302;18.596;2023-08-08T05:12:46;9.50;;;2.25;;
36355;SDS011;22384;54.302;18.596;2023-08-08T05:15:12;11.90;;;2.28;;
36355;SDS011;22384;54.302;18.596;2023-08-08T05:17:38;12.20;;;3.10;;
36355;SDS011;22384;54.302;18.596;2023-08-08T05:20:04;6.47;;;1.63;;
36355;SDS011;22384;54.302;18.596;2023-08-08T05:22:31;7.70;;;1.80;;
36355;SDS011;22384;54.302;18.596;2023-08-08T05:24:57;5.15;;;1.90;;
36355;SDS011;22384;54.302;18.596;2023-08-08T05:27:23;6.32;;;1.70;;
36355;SDS011;22384;54.302;18.596;2023-08-08T05:29:49;10.55;;;1.90;;
36355;SDS011;22384;54.302;18.596;2023-08-08T05:32:15;12.48;;;2.13;;
36355;SDS011;22384;54.302;18.596;2023-08-08T05:34:41;10.63;;;1.95;;
36355;SDS011;22384;54.302;18.596;2023-08-08T05:37:07;6.60;;;2.17;;
36355;SDS011;22384;54.302;18.596;2023-08-08T05:39:33;9.52;;;2.28;;
36355;SDS011;22384;54.302;18.596;2023-08-08T05:41:59;7.90;;;2.22;;
36355;SDS011;22384;54.302;18.596;2023-08-08T05:44:25;6.50;;;1.73;;
36355;SDS011;22384;54.302;18.596;2023-08-08T05:46:51;12.07;;;2.10;;
36355;SDS011;22384;54.302;18.596;2023-08-08T05:49:17;9.30;;;2.13;;
36355;SDS011;22384;54.302;18.596;2023-08-08T05:51:43;8.68;;;2.00;;
36355;SDS011;22384;54.302;18.596;2023-08-08T05:54:09;9.18;;;1.80;;
36355;SDS011;22384;54.302;18.596;2023-08-08T05:56:36;8.07;;;1.75;;
36355;SDS011;22384;54.302;18.596;2023-08-08T05:59:03;7.10;;;2.28;;
36355;SDS011;22384;54.302;18.596;2023-08-08T06:01:29;7.60;;;1.98;;
36355;SDS011;22384;54.302;18.596;2023-08-08T06:03:55;6.45;;;1.65;;
36355;SDS011;22384;54.302;18.596;2023-08-08T06:06:24;6.65;;;1.77;;
36355;SDS011;22384;54.302;18.596;2023-08-08T06:08:50;9.00;;;2.03;;
36355;SDS011;22384;54.302;18.596;2023-08-08T06:11:16;4.82;;;1.92;;
36355;SDS011;22384;54.302;18.596;2023-08-08T06:13:42;8.45;;;2.15;;
36355;SDS011;22384;54.302;18.596;2023-08-08T06:16:08;8.15;;;2.55;;
36355;SDS011;22384;54.302;18.596;2023-08-08T06:18:35;7.90;;;1.88;;
36355;SDS011;22384;54.302;18.596;2023-08-08T06:21:01;11.75;;;1.80;;
36355;SDS011;22384;54.302;18.596;2023-08-08T06:23:27;8.77;;;1.60;;
36355;SDS011;22384;54.302;18.596;2023-08-08T06:25:53;10.25;;;2.20;;
36355;SDS011;22384;54.302;18.596;2023-08-08T06:28:19;9.18;;;2.25;;
36355;SDS011;22384;54.302;18.596;2023-08-08T06:30:45;7.35;;;1.85;;
36355;SDS011;22384;54.302;18.596;2023-08-08T06:33:11;6.57;;;2.20;;
36355;SDS011;22384;54.302;18.596;2023-08-08T06:35:38;6.65;;;2.03;;
36355;SDS011;22384;54.302;18.596;2023-08-08T06:38:04;7.07;;;2.05;;
36355;SDS011;22384;54.302;18.596;2023-08-08T06:40:30;6.70;;;2.17;;
36355;SDS011;22384;54.302;18.596;2023-08-08T06:42:57;5.68;;;1.75;;
36355;SDS011;22384;54.302;18.596;2023-08-08T06:45:23;11.50;;;2.22;;
36355;SDS011;22384;54.302;18.596;2023-08-08T06:47:49;10.13;;;1.80;;
36355;SDS011;22384;54.302;18.596;2023-08-08T06:50:15;6.70;;;1.77;;
36355;SDS011;22384;54.302;18.596;2023-08-08T06:52:41;7.65;;;1.85;;
36355;SDS011;22384;54.302;18.596;2023-08-08T06:55:07;11.20;;;1.90;;
36355;SDS011;22384;54.302;18.596;2023-08-08T06:57:33;5.57;;;2.15;;
36355;SDS011;22384;54.302;18.596;2023-08-08T07:00:00;7.85;;;2.08;;
36355;SDS011;22384;54.302;18.596;2023-08-08T07:02:26;8.88;;;1.80;;
36355;SDS011;22384;54.302;18.596;2023-08-08T07:04:52;5.13;;;1.63;;
36355;SDS011;22384;54.302;18.596;2023-08-08T07:07:18;9.10;;;1.90;;
36355;SDS011;22384;54.302;18.596;2023-08-08T07:09:44;10.65;;;1.88;;
36355;SDS011;22384;54.302;18.596;2023-08-08T07:12:10;6.80;;;2.33;;
36355;SDS011;22384;54.302;18.596;2023-08-08T07:14:36;7.10;;;2.20;;
36355;SDS011;22384;54.302;18.596;2023-08-08T07:17:02;16.98;;;2.30;;
36355;SDS011;22384;54.302;18.596;2023-08-08T07:19:28;5.68;;;1.60;;
36355;SDS011;22384;54.302;18.596;2023-08-08T07:21:54;8.15;;;1.80;;
36355;SDS011;22384;54.302;18.596;2023-08-08T07:24:20;4.82;;;1.50;;
36355;SDS011;22384;54.302;18.596;2023-08-08T07:26:48;13.98;;;1.92;;
36355;SDS011;22384;54.302;18.596;2023-08-08T07:29:13;10.77;;;1.88;;
36355;SDS011;22384;54.302;18.596;2023-08-08T07:31:40;7.50;;;1.50;;
36355;SDS011;22384;54.302;18.596;2023-08-08T07:34:06;6.90;;;1.50;;
36355;SDS011;22384;54.302;18.596;2023-08-08T07:36:32;9.65;;;1.70;;
36355;SDS011;22384;54.302;18.596;2023-08-08T07:38:58;5.38;;;2.08;;
36355;SDS011;22384;54.302;18.596;2023-08-08T07:41:29;5.38;;;1.60;;
36355;SDS011;22384;54.302;18.596;2023-08-08T07:46:21;8.10;;;1.80;;
36355;SDS011;22384;54.302;18.596;2023-08-08T07:48:47;11.63;;;2.17;;
36355;SDS011;22384;54.302;18.596;2023-08-08T07:51:13;5.75;;;1.55;;
36355;SDS011;22384;54.302;18.596;2023-08-08T07:53:39;7.03;;;1.80;;
36355;SDS011;22384;54.302;18.596;2023-08-08T07:56:05;5.95;;;1.70;;
36355;SDS011;22384;54.302;18.596;2023-08-08T07:58:31;21.85;;;2.30;;
36355;SDS011;22384;54.302;18.596;2023-08-08T08:00:57;15.02;;;2.47;;
36355;SDS011;22384;54.302;18.596;2023-08-08T08:03:25;6.55;;;1.88;;
36355;SDS011;22384;54.302;18.596;2023-08-08T08:05:52;5.70;;;1.83;;
36355;SDS011;22384;54.302;18.596;2023-08-08T08:08:18;12.00;;;2.10;;
36355;SDS011;22384;54.302;18.596;2023-08-08T08:10:44;7.60;;;1.80;;
36355;SDS011;22384;54.302;18.596;2023-08-08T08:13:11;9.02;;;1.70;;
36355;SDS011;22384;54.302;18.596;2023-08-08T08:15:37;8.70;;;1.70;;
36355;SDS011;22384;54.302;18.596;2023-08-08T08:18:03;9.48;;;2.30;;
36355;SDS011;22384;54.302;18.596;2023-08-08T08:20:29;9.27;;;1.90;;
36355;SDS011;22384;54.302;18.596;2023-08-08T08:22:55;8.60;;;1.48;;
36355;SDS011;22384;54.302;18.596;2023-08-08T08:25:21;15.10;;;2.10;;
36355;SDS011;22384;54.302;18.596;2023-08-08T08:27:47;8.95;;;1.58;;
36355;SDS011;22384;54.302;18.596;2023-08-08T08:30:13;8.10;;;2.63;;
36355;SDS011;22384;54.302;18.596;2023-08-08T08:32:40;7.63;;;2.13;;
36355;SDS011;22384;54.302;18.596;2023-08-08T08:35:06;4.45;;;1.40;;
36355;SDS011;22384;54.302;18.596;2023-08-08T08:37:33;8.20;;;2.55;;
36355;SDS011;22384;54.302;18.596;2023-08-08T08:39:59;8.10;;;1.90;;
36355;SDS011;22384;54.302;18.596;2023-08-08T08:42:28;6.60;;;2.10;;
36355;SDS011;22384;54.302;18.596;2023-08-08T08:44:56;8.45;;;1.80;;
36355;SDS011;22384;54.302;18.596;2023-08-08T08:47:22;9.52;;;1.52;;
36355;SDS011;22384;54.302;18.596;2023-08-08T08:49:49;5.07;;;1.80;;
36355;SDS011;22384;54.302;18.596;2023-08-08T08:52:17;7.50;;;1.70;;
36355;SDS011;22384;54.302;18.596;2023-08-08T08:54:43;13.38;;;2.00;;
36355;SDS011;22384;54.302;18.596;2023-08-08T08:57:09;10.30;;;2.13;;
36355;SDS011;22384;54.302;18.596;2023-08-08T08:59:35;11.00;;;2.78;;
36355;SDS011;22384;54.302;18.596;2023-08-08T09:02:01;6.55;;;1.70;;
36355;SDS011;22384;54.302;18.596;2023-08-08T09:04:28;8.95;;;1.80;;
36355;SDS011;22384;54.302;18.596;2023-08-08T09:06:55;11.23;;;2.17;;
36355;SDS011;22384;54.302;18.596;2023-08-08T09:09:21;8.32;;;2.25;;
36355;SDS011;22384;54.302;18.596;2023-08-08T09:11:48;8.00;;;1.48;;
36355;SDS011;22384;54.302;18.596;2023-08-08T09:14:21;9.05;;;2.13;;
36355;SDS011;22384;54.302;18.596;2023-08-08T09:16:48;7.20;;;1.65;;
36355;SDS011;22384;54.302;18.596;2023-08-08T09:19:15;15.52;;;3.05;;
36355;SDS011;22384;54.302;18.596;2023-08-08T09:21:43;10.65;;;1.80;;
36355;SDS011;22384;54.302;18.596;2023-08-08T09:24:09;7.85;;;2.38;;
36355;SDS011;22384;54.302;18.596;2023-08-08T09:26:35;11.07;;;2.70;;
36355;SDS011;22384;54.302;18.596;2023-08-08T09:29:01;9.50;;;2.10;;
36355;SDS011;22384;54.302;18.596;2023-08-08T09:31:28;12.43;;;2.78;;
36355;SDS011;22384;54.302;18.596;2023-08-08T09:33:56;8.73;;;1.65;;
36355;SDS011;22384;54.302;18.596;2023-08-08T09:36:22;12.57;;;2.53;;
36355;SDS011;22384;54.302;18.596;2023-08-08T09:38:48;5.18;;;1.95;;
36355;SDS011;22384;54.302;18.596;2023-08-08T09:41:14;9.25;;;2.08;;
36355;SDS011;22384;54.302;18.596;2023-08-08T09:43:43;8.88;;;1.85;;
36355;SDS011;22384;54.302;18.596;2023-08-08T09:46:09;6.22;;;1.30;;
36355;SDS011;22384;54.302;18.596;2023-08-08T09:48:35;9.25;;;1.80;;
36355;SDS011;22384;54.302;18.596;2023-08-08T09:51:01;8.20;;;1.55;;
36355;SDS011;22384;54.302;18.596;2023-08-08T09:53:29;4.57;;;1.73;;
36355;SDS011;22384;54.302;18.596;2023-08-08T09:55:55;11.95;;;2.53;;
36355;SDS011;22384;54.302;18.596;2023-08-08T09:58:22;8.15;;;1.75;;
36355;SDS011;22384;54.302;18.596;2023-08-08T10:00:51;7.90;;;1.55;;
36355;SDS011;22384;54.302;18.596;2023-08-08T10:03:17;4.18;;;1.33;;
36355;SDS011;22384;54.302;18.596;2023-08-08T10:05:44;7.03;;;1.83;;
36355;SDS011;22384;54.302;18.596;2023-08-08T10:08:11;6.93;;;2.10;;
36355;SDS011;22384;54.302;18.596;2023-08-08T10:10:37;7.95;;;1.80;;
36355;SDS011;22384;54.302;18.596;2023-08-08T10:13:03;3.22;;;1.38;;
36355;SDS011;22384;54.302;18.596;2023-08-08T10:15:30;10.90;;;1.70;;
36355;SDS011;22384;54.302;18.596;2023-08-08T10:17:56;9.55;;;1.80;;
36355;SDS011;22384;54.302;18.596;2023-08-08T10:20:26;5.50;;;1.50;;
36355;SDS011;22384;54.302;18.596;2023-08-08T10:22:53;6.03;;;1.50;;
36355;SDS011;22384;54.302;18.596;2023-08-08T10:25:23;4.38;;;1.75;;
36355;SDS011;22384;54.302;18.596;2023-08-08T10:28:01;4.00;;;1.77;;
36355;SDS011;22384;54.302;18.596;2023-08-08T10:30:28;5.38;;;1.65;;
36355;SDS011;22384;54.302;18.596;2023-08-08T10:32:56;8.77;;;1.77;;
36355;SDS011;22384;54.302;18.596;2023-08-08T10:35:34;7.68;;;1.58;;
36355;SDS011;22384;54.302;18.596;2023-08-08T10:38:00;9.60;;;1.75;;
36355;SDS011;22384;54.302;18.596;2023-08-08T10:40:32;7.88;;;1.80;;
36355;SDS011;22384;54.302;18.596;2023-08-08T10:42:58;4.30;;;1.35;;
36355;SDS011;22384;54.302;18.596;2023-08-08T10:45:28;6.28;;;1.50;;
36355;SDS011;22384;54.302;18.596;2023-08-08T10:47:55;6.47;;;1.60;;
36355;SDS011;22384;54.302;18.596;2023-08-08T10:50:22;5.40;;;1.75;;
36355;SDS011;22384;54.302;18.596;2023-08-08T10:58:05;2.38;;;1.42;;
36355;SDS011;22384;54.302;18.596;2023-08-08T11:00:33;11.50;;;1.90;;
36355;SDS011;22384;54.302;18.596;2023-08-08T11:02:59;6.25;;;1.67;;
36355;SDS011;22384;54.302;18.596;2023-08-08T11:05:28;5.30;;;1.60;;
36355;SDS011;22384;54.302;18.596;2023-08-08T11:07:55;4.97;;;1.50;;
36355;SDS011;22384;54.302;18.596;2023-08-08T11:10:21;5.65;;;1.48;;
36355;SDS011;22384;54.302;18.596;2023-08-08T11:12:57;7.53;;;1.33;;
36355;SDS011;22384;54.302;18.596;2023-08-08T11:15:24;12.52;;;1.85;;
36355;SDS011;22384;54.302;18.596;2023-08-08T11:17:52;4.30;;;1.17;;
36355;SDS011;22384;54.302;18.596;2023-08-08T11:20:18;8.85;;;1.67;;
36355;SDS011;22384;54.302;18.596;2023-08-08T11:22:44;4.90;;;1.42;;
36355;SDS011;22384;54.302;18.596;2023-08-08T11:25:10;2.80;;;1.10;;
36355;SDS011;22384;54.302;18.596;2023-08-08T11:27:39;3.37;;;1.30;;
36355;SDS011;22384;54.302;18.596;2023-08-08T11:30:14;7.70;;;1.60;;
36355;SDS011;22384;54.302;18.596;2023-08-08T11:32:40;2.58;;;1.20;;
36355;SDS011;22384;54.302;18.596;2023-08-08T11:35:06;4.72;;;1.20;;
36355;SDS011;22384;54.302;18.596;2023-08-08T11:37:32;6.70;;;1.20;;
36355;SDS011;22384;54.302;18.596;2023-08-08T11:39:58;2.55;;;0.98;;
36355;SDS011;22384;54.302;18.596;2023-08-08T11:42:24;7.82;;;1.35;;
36355;SDS011;22384;54.302;18.596;2023-08-08T11:44:50;5.53;;;1.20;;
36355;SDS011;22384;54.302;18.596;2023-08-08T11:47:16;2.53;;;1.20;;
36355;SDS011;22384;54.302;18.596;2023-08-08T11:49:42;6.10;;;1.20;;
36355;SDS011;22384;54.302;18.596;2023-08-08T11:52:08;5.05;;;1.30;;
36355;SDS011;22384;54.302;18.596;2023-08-08T11:54:36;5.18;;;1.00;;
36355;SDS011;22384;54.302;18.596;2023-08-08T11:57:03;5.10;;;1.05;;
36355;SDS011;22384;54.302;18.596;2023-08-08T11:59:30;3.25;;;1.10;;
36355;SDS011;22384;54.302;18.596;2023-08-08T12:01:56;4.50;;;1.23;;
36355;SDS011;22384;54.302;18.596;2023-08-08T12:04:23;3.38;;;1.75;;
36355;SDS011;22384;54.302;18.596;2023-08-08T12:06:50;5.40;;;1.40;;
36355;SDS011;22384;54.302;18.596;2023-08-08T12:09:16;5.45;;;1.15;;
36355;SDS011;22384;54.302;18.596;2023-08-08T12:11:42;2.83;;;1.10;;
36355;SDS011;22384;54.302;18.596;2023-08-08T12:14:16;6.78;;;1.25;;
36355;SDS011;22384;54.302;18.596;2023-08-08T12:16:44;4.65;;;1.13;;
36355;SDS011;22384;54.302;18.596;2023-08-08T12:19:10;4.30;;;1.10;;
36355;SDS011;22384;54.302;18.596;2023-08-08T12:21:36;6.70;;;1.50;;
36355;SDS011;22384;54.302;18.596;2023-08-08T12:24:02;3.10;;;1.08;;
36355;SDS011;22384;54.302;18.596;2023-08-08T12:26:28;9.65;;;1.10;;
36355;SDS011;22384;54.302;18.596;2023-08-08T12:28:54;7.13;;;1.20;;
36355;SDS011;22384;54.302;18.596;2023-08-08T12:31:20;2.20;;;0.90;;
36355;SDS011;22384;54.302;18.596;2023-08-08T12:33:46;1.00;;;0.68;;
36355;SDS011;22384;54.302;18.596;2023-08-08T12:36:13;9.38;;;1.15;;
36355;SDS011;22384;54.302;18.596;2023-08-08T12:38:40;2.30;;;0.77;;
36355;SDS011;22384;54.302;18.596;2023-08-08T12:41:06;1.73;;;0.80;;
36355;SDS011;22384;54.302;18.596;2023-08-08T12:43:32;7.43;;;0.98;;
36355;SDS011;22384;54.302;18.596;2023-08-08T12:45:59;2.10;;;0.80;;
36355;SDS011;22384;54.302;18.596;2023-08-08T12:48:25;2.40;;;1.00;;
36355;SDS011;22384;54.302;18.596;2023-08-08T12:50:51;13.98;;;1.20;;
36355;SDS011;22384;54.302;18.596;2023-08-08T12:53:17;2.78;;;1.08;;
36355;SDS011;22384;54.302;18.596;2023-08-08T12:55:43;2.35;;;0.98;;
36355;SDS011;22384;54.302;18.596;2023-08-08T12:58:09;7.15;;;1.08;;
36355;SDS011;22384;54.302;18.596;2023-08-08T13:00:35;1.13;;;0.85;;
36355;SDS011;22384;54.302;18.596;2023-08-08T13:03:02;9.25;;;0.93;;
36355;SDS011;22384;54.302;18.596;2023-08-08T13:05:28;2.58;;;1.02;;
36355;SDS011;22384;54.302;18.596;2023-08-08T13:07:54;2.17;;;0.90;;
36355;SDS011;22384;54.302;18.596;2023-08-08T13:10:20;5.00;;;1.17;;
36355;SDS011;22384;54.302;18.596;2023-08-08T13:12:47;8.23;;;1.67;;
36355;SDS011;22384;54.302;18.596;2023-08-08T13:15:13;16.08;;;1.42;;
36355;SDS011;22384;54.302;18.596;2023-08-08T13:17:39;10.40;;;2.10;;
36355;SDS011;22384;54.302;18.596;2023-08-08T13:20:05;4.07;;;0.93;;
36355;SDS011;22384;54.302;18.596;2023-08-08T13:22:32;11.75;;;0.90;;
36355;SDS011;22384;54.302;18.596;2023-08-08T13:24:58;1.98;;;0.80;;
36355;SDS011;22384;54.302;18.596;2023-08-08T13:27:25;5.85;;;0.85;;
36355;SDS011;22384;54.302;18.596;2023-08-08T13:29:51;6.03;;;1.05;;
36355;SDS011;22384;54.302;18.596;2023-08-08T13:32:17;13.25;;;1.30;;
36355;SDS011;22384;54.302;18.596;2023-08-08T13:34:43;16.63;;;1.48;;
36355;SDS011;22384;54.302;18.596;2023-08-08T13:37:09;44.63;;;3.53;;
36355;SDS011;22384;54.302;18.596;2023-08-08T13:39:35;3.00;;;0.60;;
36355;SDS011;22384;54.302;18.596;2023-08-08T13:42:01;2.72;;;0.70;;
36355;SDS011;22384;54.302;18.596;2023-08-08T13:44:28;3.53;;;0.90;;
36355;SDS011;22384;54.302;18.596;2023-08-08T13:46:54;2.33;;;0.88;;
36355;SDS011;22384;54.302;18.596;2023-08-08T13:49:20;5.25;;;0.80;;
36355;SDS011;22384;54.302;18.596;2023-08-08T13:51:51;6.43;;;0.77;;
36355;SDS011;22384;54.302;18.596;2023-08-08T13:54:17;14.38;;;1.35;;
36355;SDS011;22384;54.302;18.596;2023-08-08T13:56:43;6.30;;;1.45;;
36355;SDS011;22384;54.302;18.596;2023-08-08T13:59:09;13.75;;;1.25;;
36355;SDS011;22384;54.302;18.596;2023-08-08T14:01:35;4.78;;;0.70;;
36355;SDS011;22384;54.302;18.596;2023-08-08T14:04:01;5.97;;;1.10;;
36355;SDS011;22384;54.302;18.596;2023-08-08T14:06:27;8.77;;;1.00;;
36355;SDS011;22384;54.302;18.596;2023-08-08T14:08:54;6.20;;;1.05;;
36355;SDS011;22384;54.302;18.596;2023-08-08T14:11:20;3.60;;;0.88;;
36355;SDS011;22384;54.302;18.596;2023-08-08T14:13:46;1.45;;;0.80;;
36355;SDS011;22384;54.302;18.596;2023-08-08T14:16:12;4.28;;;1.08;;
36355;SDS011;22384;54.302;18.596;2023-08-08T14:18:38;4.70;;;1.13;;
36355;SDS011;22384;54.302;18.596;2023-08-08T14:21:04;3.70;;;0.90;;
36355;SDS011;22384;54.302;18.596;2023-08-08T14:23:30;11.80;;;1.15;;
36355;SDS011;22384;54.302;18.596;2023-08-08T14:25:56;3.55;;;1.00;;
36355;SDS011;22384;54.302;18.596;2023-08-08T14:28:22;3.17;;;1.17;;
36355;SDS011;22384;54.302;18.596;2023-08-08T14:30:48;3.88;;;1.00;;
36355;SDS011;22384;54.302;18.596;2023-08-08T14:33:15;1.95;;;0.70;;
36355;SDS011;22384;54.302;18.596;2023-08-08T14:35:41;3.55;;;0.80;;
36355;SDS011;22384;54.302;18.596;2023-08-08T14:38:07;10.75;;;0.90;;